createdAt,value
2023-01-07T00:00:17.072Z,8.09
2023-01-07T00:01:16.679Z,8.13
2023-01-07T00:02:17.030Z,8.10
2023-01-07T00:03:16.599Z,8.10
2023-01-07T00:04:17.091Z,8.13
2023-01-07T00:05:16.608Z,8.13
2023-01-07T00:06:17.126Z,8.10
2023-01-07T00:07:16.639Z,8.09
2023-01-07T00:08:17.130Z,8.12
2023-01-07T00:09:16.845Z,8.12
2023-01-07T00:10:16.376Z,8.09
2023-01-07T00:11:16.888Z,8.09
2023-01-07T00:12:16.485Z,8.09
2023-01-07T00:13:16.995Z,8.08
2023-01-07T00:14:16.523Z,8.10
2023-01-07T00:15:17.071Z,8.08
2023-01-07T00:16:16.608Z,8.08
2023-01-07T00:17:17.197Z,8.05
2023-01-07T00:18:16.728Z,8.05
2023-01-07T00:19:17.235Z,8.06
2023-01-07T00:20:16.755Z,8.08
2023-01-07T00:21:17.282Z,8.08
2023-01-07T00:22:16.948Z,8.09
2023-01-07T00:23:16.453Z,8.09
2023-01-07T00:24:18.337Z,8.13
2023-01-07T00:25:17.191Z,8.10
2023-01-07T00:26:16.723Z,8.13
2023-01-07T00:27:17.255Z,8.14
2023-01-07T00:28:16.809Z,8.17
2023-01-07T00:29:16.308Z,8.10
2023-01-07T00:30:16.959Z,8.09
2023-01-07T00:31:16.558Z,8.09
2023-01-07T00:32:16.746Z,8.08
2023-01-07T00:33:17.267Z,8.08
2023-01-07T00:34:16.739Z,8.12
2023-01-07T00:35:17.263Z,8.12
2023-01-07T00:36:16.773Z,8.10
2023-01-07T00:37:17.266Z,8.06
2023-01-07T00:38:16.763Z,8.08
2023-01-07T00:39:17.287Z,8.09
2023-01-07T00:40:16.814Z,8.03
2023-01-07T00:41:17.337Z,8.05
2023-01-07T00:42:17.121Z,8.06
2023-01-07T00:43:16.643Z,8.06
2023-01-07T00:44:17.118Z,8.05
2023-01-07T00:45:16.619Z,8.02
2023-01-07T00:46:17.234Z,8.03
2023-01-07T00:47:16.948Z,8.05
2023-01-07T00:48:16.452Z,7.99
2023-01-07T00:49:17.030Z,8.00
2023-01-07T00:50:16.507Z,7.99
2023-01-07T00:51:16.985Z,7.99
2023-01-07T00:52:16.572Z,8.00
2023-01-07T00:53:17.091Z,8.02
2023-01-07T00:54:16.653Z,7.95
2023-01-07T00:55:17.159Z,7.96
2023-01-07T00:56:16.668Z,7.95
2023-01-07T00:57:17.176Z,7.93
2023-01-07T00:58:16.693Z,7.91
2023-01-07T00:59:17.187Z,7.95
2023-01-07T01:00:16.748Z,7.96
2023-01-07T01:01:17.479Z,7.92
2023-01-07T01:02:17.159Z,7.93
2023-01-07T01:03:16.760Z,7.93
2023-01-07T01:04:17.271Z,7.92
2023-01-07T01:05:16.806Z,7.91
2023-01-07T01:06:17.296Z,7.89
2023-01-07T01:07:16.798Z,7.88
2023-01-07T01:08:16.299Z,7.89
2023-01-07T01:09:16.800Z,7.89
2023-01-07T01:10:16.318Z,7.89
2023-01-07T01:11:16.835Z,7.89
2023-01-07T01:12:17.311Z,7.92
2023-01-07T01:13:18.256Z,7.91
2023-01-07T01:14:16.903Z,7.88
2023-01-07T01:15:16.422Z,7.88
2023-01-07T01:16:17.015Z,7.89
2023-01-07T01:17:16.742Z,7.88
2023-01-07T01:18:17.255Z,7.91
2023-01-07T01:19:17.272Z,7.88
2023-01-07T01:20:16.815Z,7.88
2023-01-07T01:21:16.363Z,7.89
2023-01-07T01:22:16.596Z,7.91
2023-01-07T01:23:17.082Z,7.86
2023-01-07T01:24:16.579Z,7.86
2023-01-07T01:25:17.086Z,7.88
2023-01-07T01:26:16.617Z,7.85
2023-01-07T01:27:17.122Z,7.86
2023-01-07T01:28:16.640Z,7.85
2023-01-07T01:29:17.152Z,7.85
2023-01-07T01:30:16.661Z,7.86
2023-01-07T01:31:17.437Z,7.85
2023-01-07T01:32:16.547Z,7.86
2023-01-07T01:33:17.084Z,7.84
2023-01-07T01:34:16.600Z,7.85
2023-01-07T01:35:17.135Z,7.84
2023-01-07T01:36:16.637Z,7.84
2023-01-07T01:37:17.125Z,7.81
2023-01-07T01:38:16.652Z,7.82
2023-01-07T01:39:17.194Z,7.81
2023-01-07T01:40:16.735Z,7.82
2023-01-07T01:41:17.312Z,7.81
2023-01-07T01:42:16.890Z,7.82
2023-01-07T01:43:16.396Z,7.82
2023-01-07T01:44:16.909Z,7.81
2023-01-07T01:45:16.442Z,7.81
2023-01-07T01:46:17.046Z,7.80
2023-01-07T01:47:16.734Z,7.80
2023-01-07T01:48:17.213Z,7.81
2023-01-07T01:49:16.721Z,7.84
2023-01-07T01:50:17.217Z,7.82
2023-01-07T01:51:16.706Z,7.81
2023-01-07T01:52:17.094Z,7.81
2023-01-07T01:53:16.610Z,7.81
2023-01-07T01:54:17.165Z,7.84
2023-01-07T01:55:16.669Z,7.78
2023-01-07T01:56:17.221Z,7.77
2023-01-07T01:57:16.723Z,7.78
2023-01-07T01:58:17.226Z,7.80
2023-01-07T01:59:16.735Z,7.80
2023-01-07T02:00:17.241Z,7.75
2023-01-07T02:01:16.881Z,7.75
2023-01-07T02:02:17.203Z,7.77
2023-01-07T02:03:16.922Z,7.75
2023-01-07T02:04:16.442Z,7.74
2023-01-07T02:05:16.948Z,7.74
2023-01-07T02:06:16.430Z,7.75
2023-01-07T02:07:16.974Z,7.75
2023-01-07T02:08:16.483Z,7.75
2023-01-07T02:09:16.991Z,7.75
2023-01-07T02:10:16.546Z,7.74
2023-01-07T02:11:17.072Z,7.78
2023-01-07T02:12:16.694Z,7.77
2023-01-07T02:13:17.210Z,7.78
2023-01-07T02:14:16.733Z,7.75
2023-01-07T02:15:17.227Z,7.77
2023-01-07T02:16:16.743Z,7.75
2023-01-07T02:17:16.383Z,7.77
2023-01-07T02:18:16.911Z,7.72
2023-01-07T02:19:16.416Z,7.72
2023-01-07T02:20:17.040Z,7.75
2023-01-07T02:21:16.544Z,7.75
2023-01-07T02:22:16.891Z,7.74
2023-01-07T02:23:16.440Z,7.74
2023-01-07T02:24:16.954Z,7.74
2023-01-07T02:25:16.487Z,7.72
2023-01-07T02:26:16.979Z,7.75
2023-01-07T02:27:16.469Z,7.75
2023-01-07T02:28:16.944Z,7.74
2023-01-07T02:29:16.472Z,7.77
2023-01-07T02:30:16.983Z,7.72
2023-01-07T02:31:16.589Z,7.72
2023-01-07T02:32:17.031Z,7.75
2023-01-07T02:33:16.532Z,7.75
2023-01-07T02:34:17.023Z,7.77
2023-01-07T02:35:16.547Z,7.75
2023-01-07T02:36:17.080Z,7.75
2023-01-07T02:37:16.593Z,7.74
2023-01-07T02:38:17.077Z,7.75
2023-01-07T02:39:16.575Z,7.71
2023-01-07T02:40:17.082Z,7.71
2023-01-07T02:41:16.594Z,7.71
2023-01-07T02:42:17.060Z,7.74
2023-01-07T02:43:16.565Z,7.72
2023-01-07T02:44:17.063Z,7.74
2023-01-07T02:45:16.582Z,7.72
2023-01-07T02:46:17.114Z,7.75
2023-01-07T02:47:16.723Z,7.74
2023-01-07T02:48:17.254Z,7.74
2023-01-07T02:49:16.750Z,7.71
2023-01-07T02:50:17.260Z,7.69
2023-01-07T02:51:16.762Z,7.72
2023-01-07T02:52:16.491Z,7.72
2023-01-07T02:53:16.974Z,7.72
2023-01-07T02:54:16.466Z,7.72
2023-01-07T02:55:16.987Z,7.74
2023-01-07T02:56:16.518Z,7.74
2023-01-07T02:57:17.057Z,7.69
2023-01-07T02:58:16.566Z,7.71
2023-01-07T02:59:17.071Z,7.71
2023-01-07T03:00:16.634Z,7.71
2023-01-07T03:01:17.225Z,7.69
2023-01-07T03:02:16.584Z,7.68
2023-01-07T03:03:17.101Z,7.69
2023-01-07T03:04:16.686Z,7.66
2023-01-07T03:05:17.273Z,7.71
2023-01-07T03:06:16.811Z,7.69
2023-01-07T03:07:17.296Z,7.71
2023-01-07T03:08:16.782Z,7.69
2023-01-07T03:09:17.279Z,7.65
2023-01-07T03:10:16.817Z,7.62
2023-01-07T03:11:16.324Z,7.59
2023-01-07T03:12:16.435Z,7.55
2023-01-07T03:13:16.923Z,7.48
2023-01-07T03:14:16.427Z,7.50
2023-01-07T03:15:16.964Z,7.50
2023-01-07T03:16:16.502Z,7.53
2023-01-07T03:17:17.056Z,7.50
2023-01-07T03:18:16.580Z,7.51
2023-01-07T03:19:17.090Z,7.53
2023-01-07T03:20:16.619Z,7.51
2023-01-07T03:21:17.136Z,7.48
2023-01-07T03:22:16.759Z,7.48
2023-01-07T03:23:17.251Z,7.44
2023-01-07T03:24:16.755Z,7.43
2023-01-07T03:25:16.325Z,7.43
2023-01-07T03:26:16.869Z,7.41
2023-01-07T03:27:16.405Z,7.48
2023-01-07T03:28:16.899Z,7.50
2023-01-07T03:29:16.432Z,7.54
2023-01-07T03:30:16.945Z,7.53
2023-01-07T03:31:16.457Z,7.54
2023-01-07T03:32:16.735Z,7.51
2023-01-07T03:33:17.307Z,7.55
2023-01-07T03:34:16.793Z,7.54
2023-01-07T03:35:17.323Z,7.55
2023-01-07T03:36:16.809Z,7.51
2023-01-07T03:37:16.327Z,7.53
2023-01-07T03:38:16.816Z,7.47
2023-01-07T03:39:16.352Z,7.45
2023-01-07T03:40:16.845Z,7.45
2023-01-07T03:41:16.342Z,7.44
2023-01-07T03:42:16.813Z,7.44
2023-01-07T03:43:16.331Z,7.43
2023-01-07T03:44:16.859Z,7.43
2023-01-07T03:45:16.363Z,7.38
2023-01-07T03:46:16.941Z,7.43
2023-01-07T03:47:16.483Z,7.43
2023-01-07T03:48:16.973Z,7.41
2023-01-07T03:49:16.496Z,7.43
2023-01-07T03:50:16.979Z,7.40
2023-01-07T03:51:16.549Z,7.44
2023-01-07T03:52:16.929Z,7.44
2023-01-07T03:53:16.411Z,7.43
2023-01-07T03:54:16.905Z,7.43
2023-01-07T03:55:16.420Z,7.44
2023-01-07T03:56:16.925Z,7.44
2023-01-07T03:57:16.430Z,7.41
2023-01-07T03:58:16.942Z,7.44
2023-01-07T03:59:16.424Z,7.48
2023-01-07T04:00:16.932Z,7.43
2023-01-07T04:01:16.523Z,7.44
2023-01-07T04:02:17.146Z,7.43
2023-01-07T04:03:16.628Z,7.43
2023-01-07T04:04:17.150Z,7.38
2023-01-07T04:05:16.794Z,7.33
2023-01-07T04:06:17.313Z,7.33
2023-01-07T04:07:16.803Z,7.30
2023-01-07T04:08:16.309Z,7.30
2023-01-07T04:09:16.846Z,7.30
2023-01-07T04:10:16.344Z,7.33
2023-01-07T04:11:16.871Z,7.27
2023-01-07T04:12:16.387Z,7.30
2023-01-07T04:13:16.935Z,7.30
2023-01-07T04:14:16.455Z,7.29
2023-01-07T04:15:16.936Z,7.30
2023-01-07T04:16:16.587Z,7.31
2023-01-07T04:17:17.198Z,7.31
2023-01-07T04:18:16.689Z,7.31
2023-01-07T04:19:17.231Z,7.30
2023-01-07T04:20:16.810Z,7.31
2023-01-07T04:21:16.338Z,7.33
2023-01-07T04:22:16.323Z,7.31
2023-01-07T04:23:16.840Z,7.33
2023-01-07T04:24:16.343Z,7.33
2023-01-07T04:25:16.856Z,7.31
2023-01-07T04:26:16.371Z,7.31
2023-01-07T04:27:16.866Z,7.33
2023-01-07T04:28:16.359Z,7.31
2023-01-07T04:29:17.922Z,7.37
2023-01-07T04:30:16.370Z,7.41
2023-01-07T04:31:16.858Z,7.38
2023-01-07T04:32:16.351Z,7.37
2023-01-07T04:33:16.833Z,7.37
2023-01-07T04:34:16.327Z,7.33
2023-01-07T04:35:16.897Z,7.34
2023-01-07T04:36:16.395Z,7.35
2023-01-07T04:37:16.872Z,7.34
2023-01-07T04:38:16.423Z,7.34
2023-01-07T04:39:16.937Z,7.33
2023-01-07T04:40:16.470Z,7.34
2023-01-07T04:41:16.968Z,7.35
2023-01-07T04:42:16.740Z,7.37
2023-01-07T04:43:17.249Z,7.35
2023-01-07T04:44:16.750Z,7.34
2023-01-07T04:45:17.216Z,7.33
2023-01-07T04:46:16.813Z,7.34
2023-01-07T04:47:16.442Z,7.30
2023-01-07T04:48:16.943Z,7.33
2023-01-07T04:49:16.453Z,7.30
2023-01-07T04:50:16.984Z,7.30
2023-01-07T04:51:16.473Z,7.31
2023-01-07T04:52:17.025Z,7.27
2023-01-07T04:53:16.550Z,7.29
2023-01-07T04:54:17.060Z,7.29
2023-01-07T04:55:16.588Z,7.31
2023-01-07T04:56:17.171Z,7.27
2023-01-07T04:57:16.674Z,7.26
2023-01-07T04:58:17.177Z,7.26
2023-01-07T04:59:16.735Z,7.26
2023-01-07T05:00:17.223Z,7.27
2023-01-07T05:01:16.830Z,7.29
2023-01-07T05:02:16.711Z,7.29
2023-01-07T05:03:17.246Z,7.29
2023-01-07T05:04:16.745Z,7.27
2023-01-07T05:05:16.311Z,7.24
2023-01-07T05:06:16.820Z,7.30
2023-01-07T05:07:16.318Z,7.30
2023-01-07T05:08:16.825Z,7.31
2023-01-07T05:09:16.341Z,7.33
2023-01-07T05:10:16.883Z,7.31
2023-01-07T05:11:16.380Z,7.31
2023-01-07T05:12:16.913Z,7.31
2023-01-07T05:13:16.423Z,7.31
2023-01-07T05:14:16.953Z,7.30
2023-01-07T05:15:16.452Z,7.34
2023-01-07T05:16:16.996Z,7.33
2023-01-07T05:17:16.588Z,7.35
2023-01-07T05:18:17.116Z,7.35
2023-01-07T05:19:16.627Z,7.35
2023-01-07T05:20:17.138Z,7.35
2023-01-07T05:21:16.642Z,7.38
2023-01-07T05:22:16.893Z,7.41
2023-01-07T05:23:16.387Z,7.40
2023-01-07T05:24:16.894Z,7.40
2023-01-07T05:25:16.385Z,7.38
2023-01-07T05:26:16.883Z,7.41
2023-01-07T05:27:16.384Z,7.40
2023-01-07T05:28:16.880Z,7.40
2023-01-07T05:29:16.408Z,7.41
2023-01-07T05:30:16.964Z,7.43
2023-01-07T05:31:16.477Z,7.40
2023-01-07T05:32:16.791Z,7.40
2023-01-07T05:33:16.317Z,7.43
2023-01-07T05:34:16.846Z,7.43
2023-01-07T05:35:16.373Z,7.41
2023-01-07T05:36:16.906Z,7.44
2023-01-07T05:37:16.490Z,7.40
2023-01-07T05:38:17.006Z,7.43
2023-01-07T05:39:16.540Z,7.40
2023-01-07T05:40:17.024Z,7.43
2023-01-07T05:41:16.558Z,7.43
2023-01-07T05:42:16.907Z,7.44
2023-01-07T05:43:16.414Z,7.45
2023-01-07T05:44:16.902Z,7.43
2023-01-07T05:45:16.399Z,7.44
2023-01-07T05:46:17.012Z,7.41
2023-01-07T05:47:16.695Z,7.41
2023-01-07T05:48:17.220Z,7.44
2023-01-07T05:49:16.723Z,7.47
2023-01-07T05:50:17.224Z,7.45
2023-01-07T05:51:16.736Z,8.29
2023-01-07T05:52:16.915Z,8.28
2023-01-07T05:53:16.447Z,8.30
2023-01-07T05:54:16.947Z,8.30
2023-01-07T05:55:16.495Z,8.32
2023-01-07T05:56:16.986Z,8.30
2023-01-07T05:57:16.488Z,8.33
2023-01-07T05:58:17.019Z,8.33
2023-01-07T05:59:16.523Z,8.35
2023-01-07T06:00:17.035Z,8.36
2023-01-07T06:01:16.607Z,8.35
2023-01-07T06:02:16.364Z,8.37
2023-01-07T06:03:16.922Z,8.35
2023-01-07T06:04:16.563Z,8.30
2023-01-07T06:05:17.044Z,8.28
2023-01-07T06:06:16.576Z,8.28
2023-01-07T06:07:17.099Z,8.26
2023-01-07T06:08:16.613Z,8.29
2023-01-07T06:09:17.104Z,8.28
2023-01-07T06:10:16.612Z,8.29
2023-01-07T06:11:17.150Z,8.29
2023-01-07T06:12:16.948Z,8.28
2023-01-07T06:13:16.438Z,8.33
2023-01-07T06:14:16.946Z,8.30
2023-01-07T06:15:16.456Z,8.32
2023-01-07T06:16:17.024Z,8.30
2023-01-07T06:17:16.795Z,8.30
2023-01-07T06:18:16.361Z,8.30
2023-01-07T06:19:16.888Z,8.26
2023-01-07T06:20:16.418Z,8.28
2023-01-07T06:21:16.910Z,8.28
2023-01-07T06:22:17.202Z,8.28
2023-01-07T06:23:16.689Z,8.26
2023-01-07T06:24:17.238Z,8.25
2023-01-07T06:25:16.735Z,8.20
2023-01-07T06:26:17.226Z,8.18
2023-01-07T06:27:16.713Z,8.18
2023-01-07T06:28:17.222Z,8.12
2023-01-07T06:29:16.736Z,8.04
2023-01-07T06:30:17.220Z,8.05
2023-01-07T06:31:16.790Z,8.06
2023-01-07T06:32:16.743Z,8.08
2023-01-07T06:33:17.262Z,8.06
2023-01-07T06:34:16.771Z,8.06
2023-01-07T06:35:17.262Z,8.04
2023-01-07T06:36:16.777Z,8.05
2023-01-07T06:37:17.288Z,8.01
2023-01-07T06:38:16.789Z,8.01
2023-01-07T06:39:17.288Z,8.02
2023-01-07T06:40:16.823Z,8.01
2023-01-07T06:41:16.342Z,8.00
2023-01-07T06:42:16.925Z,7.98
2023-01-07T06:43:16.449Z,8.00
2023-01-07T06:44:17.145Z,7.97
2023-01-07T06:45:16.677Z,7.97
2023-01-07T06:46:17.261Z,7.94
2023-01-07T06:47:16.937Z,7.94
2023-01-07T06:48:16.461Z,7.95
2023-01-07T06:49:16.978Z,7.97
2023-01-07T06:50:16.479Z,7.95
2023-01-07T06:51:17.004Z,7.97
2023-01-07T06:52:16.931Z,7.97
2023-01-07T06:53:16.450Z,7.97
2023-01-07T06:54:16.991Z,7.98
2023-01-07T06:55:16.521Z,7.97
2023-01-07T06:56:17.071Z,7.98
2023-01-07T06:57:16.592Z,7.98
2023-01-07T06:58:17.075Z,8.01
2023-01-07T06:59:16.604Z,8.01
2023-01-07T07:00:17.119Z,8.02
2023-01-07T07:01:16.798Z,8.01
2023-01-07T07:02:17.258Z,8.02
2023-01-07T07:03:17.044Z,8.01
2023-01-07T07:04:16.681Z,7.97
2023-01-07T07:05:17.191Z,7.97
2023-01-07T07:06:16.734Z,7.95
2023-01-07T07:07:17.248Z,7.97
2023-01-07T07:08:16.768Z,7.94
2023-01-07T07:09:17.256Z,8.00
2023-01-07T07:10:16.746Z,7.95
2023-01-07T07:11:17.278Z,7.91
2023-01-07T07:12:16.907Z,7.88
2023-01-07T07:13:16.401Z,7.88
2023-01-07T07:14:16.919Z,7.90
2023-01-07T07:15:16.437Z,7.88
2023-01-07T07:16:16.975Z,7.91
2023-01-07T07:17:16.583Z,7.92
2023-01-07T07:18:17.051Z,7.90
2023-01-07T07:19:16.592Z,7.92
2023-01-07T07:20:17.109Z,7.90
2023-01-07T07:21:16.608Z,7.87
2023-01-07T07:22:16.817Z,7.85
2023-01-07T07:23:16.341Z,7.85
2023-01-07T07:24:16.834Z,7.87
2023-01-07T07:25:16.342Z,7.85
2023-01-07T07:26:16.858Z,7.15
2023-01-07T07:27:16.389Z,7.84
2023-01-07T07:28:16.891Z,7.84
2023-01-07T07:29:16.394Z,7.84
2023-01-07T07:30:16.927Z,7.85
2023-01-07T07:31:16.587Z,7.87
2023-01-07T07:32:16.699Z,7.90
2023-01-07T07:33:17.209Z,7.88
2023-01-07T07:34:16.742Z,7.90
2023-01-07T07:35:17.279Z,7.90
2023-01-07T07:36:16.771Z,7.94
2023-01-07T07:37:17.306Z,7.92
2023-01-07T07:38:16.788Z,7.90
2023-01-07T07:39:17.295Z,7.20
2023-01-07T07:40:16.809Z,7.15
2023-01-07T07:41:16.351Z,8.00
2023-01-07T07:42:17.259Z,7.98
2023-01-07T07:43:16.759Z,7.98
2023-01-07T07:44:17.323Z,8.00
2023-01-07T07:45:16.813Z,8.04
2023-01-07T07:46:17.356Z,8.04
2023-01-07T07:47:16.916Z,8.02
2023-01-07T07:48:16.476Z,8.04
2023-01-07T07:49:17.060Z,8.02
2023-01-07T07:50:16.565Z,8.04
2023-01-07T07:51:17.143Z,7.13
2023-01-07T07:52:16.452Z,7.13
2023-01-07T07:53:16.932Z,7.13
2023-01-07T07:54:16.528Z,8.09
2023-01-07T07:55:19.799Z,8.08
2023-01-07T07:56:16.920Z,8.11
2023-01-07T07:57:16.430Z,8.12
2023-01-07T07:58:16.938Z,8.12
2023-01-07T07:59:16.443Z,8.13
2023-01-07T08:00:16.933Z,8.12
2023-01-07T08:01:16.539Z,8.12
2023-01-07T08:02:17.283Z,8.15
2023-01-07T08:03:17.007Z,8.09
2023-01-07T08:04:16.634Z,8.13
2023-01-07T08:05:16.403Z,8.15
2023-01-07T08:06:16.940Z,8.15
2023-01-07T08:07:32.335Z,8.11
2023-01-07T08:08:16.939Z,7.20
2023-01-07T08:09:16.471Z,7.19
2023-01-07T08:10:16.941Z,7.19
2023-01-07T08:11:16.435Z,7.22
2023-01-07T08:12:16.953Z,7.24
2023-01-07T08:13:16.446Z,7.23
2023-01-07T08:14:16.951Z,7.20
2023-01-07T08:15:16.439Z,7.20
2023-01-07T08:16:17.000Z,7.26
2023-01-07T08:17:16.509Z,7.30
2023-01-07T08:18:17.019Z,7.27
2023-01-07T08:19:16.519Z,7.29
2023-01-07T08:20:17.036Z,7.27
2023-01-07T08:21:16.554Z,7.34
2023-01-07T08:22:16.947Z,7.34
2023-01-07T08:23:16.452Z,7.37
2023-01-07T08:24:16.972Z,7.38
2023-01-07T08:25:16.469Z,7.40
2023-01-07T08:26:16.995Z,7.40
2023-01-07T08:27:16.541Z,7.44
2023-01-07T08:28:17.018Z,7.41
2023-01-07T08:29:16.503Z,7.45
2023-01-07T08:30:16.998Z,7.41
2023-01-07T08:31:16.588Z,7.43
2023-01-07T08:32:16.751Z,7.41
2023-01-07T08:33:17.276Z,7.41
2023-01-07T08:34:16.787Z,7.45
2023-01-07T08:35:17.292Z,7.45
2023-01-07T08:36:22.806Z,7.47
2023-01-07T08:37:17.123Z,7.47
2023-01-07T08:38:16.605Z,7.47
2023-01-07T08:39:17.117Z,7.48
2023-01-07T08:40:16.619Z,7.53
2023-01-07T08:41:17.118Z,7.54
2023-01-07T08:42:16.849Z,7.59
2023-01-07T08:43:16.338Z,7.61
2023-01-07T08:44:16.849Z,7.64
2023-01-07T08:45:16.355Z,7.66
2023-01-07T08:46:16.904Z,7.74
2023-01-07T08:47:16.494Z,7.75
2023-01-07T08:48:17.003Z,7.78
2023-01-07T08:49:16.496Z,7.78
2023-01-07T08:50:16.989Z,7.86
2023-01-07T08:51:16.470Z,7.86
2023-01-07T08:52:17.004Z,7.88
2023-01-07T08:53:16.499Z,7.89
2023-01-07T08:54:17.027Z,7.91
2023-01-07T08:55:16.516Z,7.93
2023-01-07T08:56:17.044Z,7.99
2023-01-07T08:57:16.564Z,8.00
2023-01-07T08:58:17.064Z,8.00
2023-01-07T08:59:16.560Z,8.05
2023-01-07T09:00:17.067Z,8.06
2023-01-07T09:01:16.653Z,8.08
2023-01-07T09:02:16.849Z,8.12
2023-01-07T09:03:16.664Z,8.08
2023-01-07T09:04:17.224Z,8.12
2023-01-07T09:05:16.785Z,8.12
2023-01-07T09:06:17.327Z,8.13
2023-01-07T09:07:16.837Z,8.12
2023-01-07T09:08:16.337Z,8.10
2023-01-07T09:09:16.856Z,8.13
2023-01-07T09:10:16.386Z,8.14
2023-01-07T09:11:16.910Z,8.14
2023-01-07T09:12:16.880Z,8.17
2023-01-07T09:13:16.419Z,8.14
2023-01-07T09:14:16.953Z,8.13
2023-01-07T09:15:16.454Z,8.13
2023-01-07T09:16:16.992Z,8.14
2023-01-07T09:17:16.591Z,8.13
2023-01-07T09:18:17.086Z,8.13
2023-01-07T09:19:16.621Z,8.14
2023-01-07T09:20:17.103Z,8.13
2023-01-07T09:21:16.619Z,8.17
2023-01-07T09:22:17.268Z,8.16
2023-01-07T09:23:16.764Z,8.12
2023-01-07T09:24:17.283Z,8.16
2023-01-07T09:25:16.762Z,8.16
2023-01-07T09:26:17.322Z,8.20
2023-01-07T09:27:16.840Z,8.19
2023-01-07T09:28:16.350Z,8.20
2023-01-07T09:29:16.891Z,8.21
2023-01-07T09:30:16.422Z,8.24
2023-01-07T09:31:16.952Z,8.24
2023-01-07T09:32:16.667Z,8.26
2023-01-07T09:33:17.162Z,8.27
2023-01-07T09:34:16.690Z,8.30
2023-01-07T09:35:17.178Z,8.31
2023-01-07T09:36:16.799Z,8.31
2023-01-07T09:37:16.311Z,8.33
2023-01-07T09:38:16.833Z,8.37
2023-01-07T09:39:16.353Z,8.36
2023-01-07T09:40:16.883Z,8.36
2023-01-07T09:41:16.384Z,8.37
2023-01-07T09:42:17.318Z,8.39
2023-01-07T09:43:16.841Z,8.40
2023-01-07T09:44:16.337Z,8.37
2023-01-07T09:45:16.845Z,8.41
2023-01-07T09:46:16.363Z,8.43
2023-01-07T09:47:16.903Z,8.43
2023-01-07T09:48:16.417Z,8.44
2023-01-07T09:49:16.963Z,8.47
2023-01-07T09:50:16.497Z,8.45
2023-01-07T09:51:17.006Z,8.48
2023-01-07T09:52:16.332Z,8.48
2023-01-07T09:53:16.814Z,8.48
2023-01-07T09:54:16.301Z,8.48
2023-01-07T09:55:16.798Z,8.48
2023-01-07T09:56:16.306Z,8.50
2023-01-07T09:57:16.834Z,8.48
2023-01-07T09:58:16.378Z,8.54
2023-01-07T09:59:16.890Z,8.51
2023-01-07T10:00:16.403Z,8.52
2023-01-07T10:01:16.920Z,8.52
2023-01-07T10:02:17.081Z,8.54
2023-01-07T10:03:16.704Z,8.52
2023-01-07T10:04:17.245Z,8.54
2023-01-07T10:05:16.890Z,8.57
2023-01-07T10:06:16.383Z,8.59
2023-01-07T10:07:16.888Z,8.59
2023-01-07T10:08:29.625Z,8.57
2023-01-07T10:09:16.321Z,8.61
2023-01-07T10:10:16.840Z,8.62
2023-01-07T10:11:16.339Z,8.67
2023-01-07T10:12:17.117Z,8.64
2023-01-07T10:13:16.612Z,8.67
2023-01-07T10:14:17.149Z,8.69
2023-01-07T10:15:16.655Z,8.67
2023-01-07T10:16:16.491Z,8.71
2023-01-07T10:17:17.030Z,8.71
2023-01-07T10:18:16.534Z,8.72
2023-01-07T10:19:17.014Z,8.72
2023-01-07T10:20:16.541Z,8.76
2023-01-07T10:21:17.089Z,8.79
2023-01-07T10:22:16.617Z,8.78
2023-01-07T10:23:17.142Z,8.80
2023-01-07T10:24:16.632Z,8.80
2023-01-07T10:25:17.148Z,8.85
2023-01-07T10:26:16.655Z,8.89
2023-01-07T10:27:17.183Z,8.85
2023-01-07T10:28:16.691Z,8.89
2023-01-07T10:29:17.182Z,8.91
2023-01-07T10:30:16.740Z,8.92
2023-01-07T10:31:17.276Z,8.95
2023-01-07T10:32:17.121Z,8.95
2023-01-07T10:33:16.658Z,8.96
2023-01-07T10:34:17.175Z,8.95
2023-01-07T10:35:16.702Z,8.98
2023-01-07T10:36:17.209Z,9.02
2023-01-07T10:37:16.761Z,8.98
2023-01-07T10:38:17.274Z,8.99
2023-01-07T10:39:16.778Z,9.00
2023-01-07T10:40:17.294Z,9.03
2023-01-07T10:41:16.791Z,9.07
2023-01-07T10:42:17.255Z,9.12
2023-01-07T10:43:16.746Z,9.05
2023-01-07T10:44:17.238Z,9.12
2023-01-07T10:45:16.776Z,9.17
2023-01-07T10:46:17.434Z,9.17
2023-01-07T10:47:17.081Z,9.15
2023-01-07T10:48:16.611Z,9.19
2023-01-07T10:49:17.101Z,9.22
2023-01-07T10:50:16.641Z,9.23
2023-01-07T10:51:17.133Z,9.19
2023-01-07T10:52:17.164Z,9.22
2023-01-07T10:53:19.110Z,9.27
2023-01-07T10:54:16.792Z,9.24
2023-01-07T10:55:17.273Z,9.27
2023-01-07T10:56:16.789Z,9.27
2023-01-07T10:57:17.291Z,9.29
2023-01-07T10:58:16.837Z,9.31
2023-01-07T10:59:16.369Z,9.38
2023-01-07T11:00:16.884Z,9.48
2023-01-07T11:01:16.488Z,9.50
2023-01-07T11:02:17.207Z,9.48
2023-01-07T11:03:17.203Z,9.47
2023-01-07T11:04:16.700Z,9.48
2023-01-07T11:05:17.209Z,9.43
2023-01-07T11:06:16.711Z,9.53
2023-01-07T11:07:17.210Z,9.57
2023-01-07T11:08:16.711Z,9.54
2023-01-07T11:09:17.202Z,9.61
2023-01-07T11:10:16.712Z,9.64
2023-01-07T11:11:17.241Z,9.66
2023-01-07T11:12:16.928Z,9.69
2023-01-07T11:13:16.440Z,9.68
2023-01-07T11:14:16.968Z,9.75
2023-01-07T11:15:16.474Z,9.85
2023-01-07T11:16:17.107Z,9.91
2023-01-07T11:17:16.677Z,9.75
2023-01-07T11:18:17.164Z,9.80
2023-01-07T11:19:16.664Z,9.81
2023-01-07T11:20:17.140Z,9.80
2023-01-07T11:21:42.292Z,9.91
2023-01-07T11:22:17.178Z,9.88
2023-01-07T11:23:16.693Z,10.03
2023-01-07T11:24:17.239Z,10.01
2023-01-07T11:25:16.791Z,9.99
2023-01-07T11:26:16.319Z,9.99
2023-01-07T11:27:16.845Z,9.98
2023-01-07T11:28:16.372Z,9.98
2023-01-07T11:29:16.852Z,10.03
2023-01-07T11:30:16.371Z,9.99
2023-01-07T11:31:16.862Z,10.13
2023-01-07T11:32:16.403Z,9.98
2023-01-07T11:33:16.914Z,10.01
2023-01-07T11:34:16.426Z,10.02
2023-01-07T11:35:16.960Z,10.08
2023-01-07T11:36:16.501Z,10.08
2023-01-07T11:37:17.047Z,10.06
2023-01-07T11:38:16.566Z,10.01
2023-01-07T11:39:17.047Z,9.96
2023-01-07T11:40:16.649Z,10.05
2023-01-07T11:41:17.309Z,10.12
2023-01-07T11:42:16.701Z,10.10
2023-01-07T11:43:17.169Z,10.12
2023-01-07T11:44:16.688Z,10.13
2023-01-07T11:45:17.249Z,10.08
2023-01-07T11:46:18.902Z,10.13
2023-01-07T11:47:17.271Z,10.10
2023-01-07T11:48:16.800Z,10.03
2023-01-07T11:49:17.335Z,10.01
2023-01-07T11:50:16.826Z,10.10
2023-01-07T11:51:16.335Z,10.12
2023-01-07T11:52:16.954Z,10.17
2023-01-07T11:53:16.466Z,10.21
2023-01-07T11:54:17.000Z,10.23
2023-01-07T11:55:16.513Z,10.21
2023-01-07T11:56:17.004Z,10.20
2023-01-07T11:57:16.515Z,10.19
2023-01-07T11:58:29.187Z,10.23
2023-01-07T11:59:16.496Z,10.20
2023-01-07T12:00:17.012Z,10.21
2023-01-07T12:01:16.526Z,10.13
2023-01-07T12:02:16.779Z,10.13
2023-01-07T12:03:16.383Z,10.19
2023-01-07T12:04:16.947Z,10.13
2023-01-07T12:05:16.442Z,10.10
2023-01-07T12:06:16.948Z,10.14
2023-01-07T12:07:16.525Z,10.12
2023-01-07T12:08:16.999Z,10.13
2023-01-07T12:09:16.506Z,10.10
2023-01-07T12:10:17.023Z,10.14
2023-01-07T12:11:16.540Z,10.06
2023-01-07T12:12:17.256Z,10.02
2023-01-07T12:13:16.759Z,10.08
2023-01-07T12:14:17.256Z,10.03
2023-01-07T12:15:16.785Z,10.13
2023-01-07T12:16:17.396Z,10.13
2023-01-07T12:17:17.017Z,10.05
2023-01-07T12:18:16.607Z,10.06
2023-01-07T12:19:17.142Z,9.99
2023-01-07T12:20:16.633Z,10.03
2023-01-07T12:21:17.140Z,10.09
2023-01-07T12:22:16.841Z,10.09
2023-01-07T12:23:16.337Z,10.06
2023-01-07T12:24:16.835Z,10.10
2023-01-07T12:25:16.392Z,10.19
2023-01-07T12:26:16.939Z,10.21
2023-01-07T12:27:16.421Z,10.20
2023-01-07T12:28:16.935Z,10.26
2023-01-07T12:29:16.522Z,10.23
2023-01-07T12:30:17.060Z,10.23
2023-01-07T12:31:16.565Z,10.26
2023-01-07T12:32:17.131Z,10.34
2023-01-07T12:33:16.670Z,10.27
2023-01-07T12:34:17.180Z,10.26
2023-01-07T12:35:16.690Z,10.24
2023-01-07T12:36:17.202Z,10.31
2023-01-07T12:37:16.685Z,10.24
2023-01-07T12:38:17.185Z,10.33
2023-01-07T12:39:16.677Z,10.33
2023-01-07T12:40:17.255Z,10.30
2023-01-07T12:41:16.779Z,10.36
2023-01-07T12:42:17.054Z,10.33
2023-01-07T12:43:16.625Z,10.37
2023-01-07T12:44:17.176Z,10.43
2023-01-07T12:45:16.664Z,10.43
2023-01-07T12:46:17.229Z,10.30
2023-01-07T12:47:32.801Z,10.29
2023-01-07T12:48:16.523Z,10.34
2023-01-07T12:49:17.025Z,10.24
2023-01-07T12:50:16.567Z,10.23
2023-01-07T12:51:17.112Z,10.14
2023-01-07T12:52:16.496Z,10.21
2023-01-07T12:53:16.992Z,10.14
2023-01-07T12:54:16.525Z,10.14
2023-01-07T12:55:17.021Z,10.17
2023-01-07T12:56:16.658Z,10.13
2023-01-07T12:57:17.162Z,10.08
2023-01-07T12:58:16.658Z,10.10
2023-01-07T12:59:45.249Z,10.19
2023-01-07T13:00:16.677Z,10.23
2023-01-07T13:01:17.481Z,10.21
2023-01-07T13:02:16.821Z,10.24
2023-01-07T13:03:16.446Z,10.23
2023-01-07T13:04:17.006Z,10.24
2023-01-07T13:05:16.601Z,10.27
2023-01-07T13:06:17.110Z,10.27
2023-01-07T13:07:16.629Z,10.29
2023-01-07T13:08:17.127Z,10.27
2023-01-07T13:09:16.678Z,10.31
2023-01-07T13:10:17.215Z,10.33
2023-01-07T13:11:16.694Z,10.34
2023-01-07T13:12:40.417Z,10.26
2023-01-07T13:13:17.010Z,10.29
2023-01-07T13:14:16.502Z,10.31